createdAt,value
2023-05-19T00:01:01.845Z,16.31
2023-05-19T00:03:29.236Z,16.35
2023-05-19T00:05:58.789Z,16.29
2023-05-19T00:08:26.730Z,16.17
2023-05-19T00:10:54.870Z,16.06
2023-05-19T00:13:23.448Z,16.04
2023-05-19T00:15:56.222Z,16.01
2023-05-19T00:18:23.481Z,16.13
2023-05-19T00:20:51.583Z,16.12
2023-05-19T00:23:18.455Z,16.15
2023-05-19T00:25:48.417Z,16.15
2023-05-19T00:28:15.222Z,16.02
2023-05-19T00:30:45.340Z,15.98
2023-05-19T00:33:12.561Z,15.99
2023-05-19T00:35:40.960Z,16.00
2023-05-19T00:38:07.927Z,16.06
2023-05-19T00:40:36.903Z,16.04
2023-05-19T00:43:05.809Z,16.04
2023-05-19T00:45:32.730Z,16.00
2023-05-19T00:48:18.133Z,16.10
2023-05-19T00:50:49.886Z,16.12
2023-05-19T00:53:21.862Z,16.10
2023-05-19T00:56:09.622Z,16.12
2023-05-19T00:58:37.740Z,16.11
2023-05-19T01:01:05.384Z,16.05
2023-05-19T01:03:37.349Z,15.99
2023-05-19T01:06:08.965Z,15.98
2023-05-19T01:08:37.689Z,15.97
2023-05-19T01:11:07.171Z,15.95
2023-05-19T01:13:35.277Z,15.90
2023-05-19T01:16:12.889Z,15.92
2023-05-19T01:18:57.076Z,16.01
2023-05-19T01:21:45.898Z,16.03
2023-05-19T01:24:39.530Z,15.93
2023-05-19T01:27:27.428Z,15.79
2023-05-19T01:30:34.039Z,15.71
2023-05-19T01:33:03.630Z,15.72
2023-05-19T01:35:31.381Z,15.73
2023-05-19T01:38:00.672Z,15.70
2023-05-19T01:40:29.356Z,15.72
2023-05-19T01:42:58.334Z,15.75
2023-05-19T01:45:27.211Z,15.79
2023-05-19T01:47:58.973Z,15.83
2023-05-19T01:50:27.520Z,16.00
2023-05-19T01:52:55.194Z,16.10
2023-05-19T01:55:24.170Z,16.05
2023-05-19T01:57:51.129Z,15.93
2023-05-19T02:00:31.771Z,15.96
2023-05-19T02:03:01.906Z,16.46
2023-05-19T02:06:02.571Z,16.83
2023-05-19T02:08:47.958Z,16.45
2023-05-19T02:11:26.277Z,16.35
2023-05-19T02:13:57.163Z,16.72
2023-05-19T02:16:29.428Z,16.47
2023-05-19T02:18:59.857Z,16.20
2023-05-19T02:21:27.037Z,16.52
2023-05-19T02:24:06.830Z,16.48
2023-05-19T02:26:37.162Z,16.55
2023-05-19T02:29:04.288Z,16.96
2023-05-19T02:31:31.240Z,16.85
2023-05-19T02:34:00.037Z,16.80
2023-05-19T02:36:30.834Z,16.65
2023-05-19T02:38:58.744Z,16.78
2023-05-19T02:41:26.334Z,16.86
2023-05-19T02:43:53.388Z,16.77
2023-05-19T02:46:20.851Z,16.57
2023-05-19T02:48:54.057Z,16.45
2023-05-19T02:51:25.230Z,16.57
2023-05-19T02:53:52.246Z,16.88
2023-05-19T02:56:23.038Z,17.03
2023-05-19T02:58:51.077Z,17.24
2023-05-19T03:01:17.937Z,16.88
2023-05-19T03:03:45.087Z,16.80
2023-05-19T03:06:14.465Z,16.94
2023-05-19T03:08:42.403Z,17.42
2023-05-19T03:11:09.453Z,17.67
2023-05-19T03:13:39.412Z,17.01
2023-05-19T03:16:10.675Z,16.99
2023-05-19T03:18:38.560Z,17.07
2023-05-19T03:21:06.308Z,16.90
2023-05-19T03:23:33.204Z,16.64
2023-05-19T03:26:00.369Z,17.22
2023-05-19T03:28:31.813Z,17.56
2023-05-19T03:30:58.776Z,17.29
2023-05-19T03:33:25.778Z,16.65
2023-05-19T03:35:53.341Z,16.24
2023-05-19T03:38:20.316Z,16.18
2023-05-19T03:40:47.248Z,16.08
2023-05-19T03:43:14.741Z,16.02
2023-05-19T03:45:41.742Z,16.25
2023-05-19T03:48:08.724Z,16.72
2023-05-19T03:50:37.550Z,17.14
2023-05-19T03:53:07.472Z,17.06
2023-05-19T03:55:42.303Z,16.53
2023-05-19T03:58:10.969Z,16.45
2023-05-19T04:00:38.187Z,16.37
2023-05-19T04:03:05.069Z,16.66
2023-05-19T04:05:32.103Z,16.84
2023-05-19T04:08:02.323Z,17.30
2023-05-19T04:10:37.058Z,17.41
2023-05-19T04:13:03.951Z,17.09
2023-05-19T04:15:33.534Z,16.73
2023-05-19T04:18:03.967Z,16.42
2023-05-19T04:20:31.336Z,16.46
2023-05-19T04:22:58.567Z,16.75
2023-05-19T04:25:28.579Z,16.42
2023-05-19T04:27:58.241Z,16.18
2023-05-19T04:30:25.619Z,16.12
2023-05-19T04:32:52.756Z,16.26
2023-05-19T04:35:20.092Z,16.62
2023-05-19T04:37:47.159Z,16.33
2023-05-19T04:40:14.504Z,15.99
2023-05-19T04:42:43.160Z,16.10
2023-05-19T04:45:10.751Z,16.10
2023-05-19T04:47:40.616Z,15.87
2023-05-19T04:50:08.224Z,15.72
2023-05-19T04:52:35.190Z,15.61
2023-05-19T04:55:10.611Z,15.58
2023-05-19T04:57:41.973Z,15.69
2023-05-19T05:00:13.107Z,15.64
2023-05-19T05:02:43.448Z,15.73
2023-05-19T05:05:10.616Z,15.70
2023-05-19T05:07:42.494Z,15.62
2023-05-19T05:10:14.637Z,15.59
2023-05-19T05:12:42.012Z,15.60
2023-05-19T05:15:09.660Z,15.52
2023-05-19T05:17:38.031Z,15.59
2023-05-19T05:20:09.778Z,15.60
2023-05-19T05:22:36.908Z,15.55
2023-05-19T05:25:04.821Z,15.56
2023-05-19T05:27:32.947Z,15.69
2023-05-19T05:30:02.149Z,15.85
2023-05-19T05:32:29.330Z,15.80
2023-05-19T05:35:03.608Z,15.76
2023-05-19T05:37:31.202Z,15.66
2023-05-19T05:40:03.617Z,15.75
2023-05-19T05:42:30.504Z,15.81
2023-05-19T05:44:57.497Z,15.91
2023-05-19T05:47:24.671Z,16.00
2023-05-19T05:49:53.582Z,16.18
2023-05-19T05:52:22.572Z,16.05
2023-05-19T05:54:51.119Z,15.90
2023-05-19T05:57:18.425Z,16.09
2023-05-19T05:59:47.364Z,16.03
2023-05-19T06:02:14.573Z,16.21
2023-05-19T06:04:42.132Z,16.27
2023-05-19T06:07:09.183Z,16.34
2023-05-19T06:09:36.435Z,16.15
2023-05-19T06:12:03.517Z,16.06
2023-05-19T06:14:30.654Z,15.93
2023-05-19T06:16:57.714Z,16.05
2023-05-19T06:19:25.734Z,16.07
2023-05-19T06:21:52.797Z,15.94
2023-05-19T06:24:19.814Z,15.89
2023-05-19T06:26:46.870Z,15.86
2023-05-19T06:29:13.736Z,15.96
2023-05-19T06:31:50.127Z,15.91
2023-05-19T06:34:21.366Z,15.87
2023-05-19T06:36:48.528Z,15.81
2023-05-19T06:39:20.261Z,15.81
2023-05-19T06:41:47.206Z,15.77
2023-05-19T06:44:15.313Z,15.92
2023-05-19T06:46:42.721Z,16.07
2023-05-19T06:49:15.991Z,16.35
2023-05-19T06:51:50.797Z,16.26
2023-05-19T06:54:19.381Z,16.12
2023-05-19T06:56:49.111Z,16.24
2023-05-19T06:59:16.577Z,16.48
2023-05-19T07:01:43.559Z,16.55
2023-05-19T07:04:10.697Z,16.26
2023-05-19T07:06:40.003Z,16.21
2023-05-19T07:09:12.861Z,16.34
2023-05-19T07:11:42.684Z,16.72
2023-05-19T07:14:09.566Z,16.40
2023-05-19T07:16:36.871Z,16.51
2023-05-19T07:19:03.827Z,16.11
2023-05-19T07:21:34.030Z,16.18
2023-05-19T07:24:01.030Z,16.19
2023-05-19T07:26:28.441Z,16.80
2023-05-19T07:28:55.438Z,16.67
2023-05-19T07:31:22.282Z,16.35
2023-05-19T07:33:49.134Z,16.33
2023-05-19T07:36:16.126Z,16.43
2023-05-19T07:38:44.687Z,16.88
2023-05-19T07:41:19.959Z,16.78
2023-05-19T07:43:52.134Z,17.02
2023-05-19T07:46:20.978Z,17.17
2023-05-19T07:48:49.213Z,16.68
2023-05-19T07:51:16.485Z,16.43
2023-05-19T07:53:43.325Z,16.69
2023-05-19T07:56:10.234Z,16.65
2023-05-19T07:58:37.112Z,16.46
2023-05-19T08:01:04.164Z,16.27
2023-05-19T08:03:31.370Z,16.54
2023-05-19T08:05:58.744Z,16.10
2023-05-19T08:08:28.919Z,16.11
2023-05-19T08:10:55.889Z,16.23
2023-05-19T08:13:25.723Z,16.95
2023-05-19T08:15:54.666Z,16.62
2023-05-19T08:18:24.597Z,16.70
2023-05-19T08:20:51.418Z,16.79
2023-05-19T08:23:19.920Z,16.78
2023-05-19T08:25:46.845Z,16.85
2023-05-19T08:28:13.836Z,16.56
2023-05-19T08:30:40.831Z,16.57
2023-05-19T08:33:08.848Z,16.82
2023-05-19T08:35:35.852Z,16.70
2023-05-19T08:38:05.248Z,16.42
2023-05-19T08:40:35.356Z,16.39
2023-05-19T08:43:02.989Z,16.52
2023-05-19T08:45:34.401Z,16.35
2023-05-19T08:48:04.747Z,16.36
2023-05-19T08:50:36.759Z,16.21
2023-05-19T08:53:32.460Z,16.60
2023-05-19T08:56:16.799Z,17.09
2023-05-19T08:58:46.232Z,16.95
2023-05-19T09:01:17.220Z,16.95
2023-05-19T09:03:51.445Z,16.97
2023-05-19T09:06:18.427Z,16.79
2023-05-19T09:08:45.457Z,16.79
2023-05-19T09:11:12.605Z,16.92
2023-05-19T09:13:44.173Z,16.96
2023-05-19T09:16:12.099Z,17.00
2023-05-19T09:18:57.224Z,16.93
2023-05-19T09:21:33.321Z,17.04
2023-05-19T09:24:08.664Z,17.12
2023-05-19T09:26:43.398Z,17.24
2023-05-19T09:29:14.866Z,17.18
2023-05-19T09:31:52.027Z,17.10
2023-05-19T09:34:19.657Z,17.15
2023-05-19T09:36:49.902Z,17.11
2023-05-19T09:39:17.749Z,17.15
2023-05-19T09:41:47.642Z,17.16
2023-05-19T09:44:20.956Z,17.13
2023-05-19T09:46:52.094Z,17.07
2023-05-19T09:49:24.165Z,17.10
2023-05-19T09:52:13.119Z,17.31
2023-05-19T09:54:45.583Z,17.18
2023-05-19T09:57:13.034Z,17.33
2023-05-19T09:59:41.300Z,17.25
2023-05-19T10:02:17.838Z,17.06
2023-05-19T10:04:46.715Z,17.03
2023-05-19T10:07:16.312Z,17.20
2023-05-19T10:09:45.208Z,17.26
2023-05-19T10:12:20.540Z,17.09
2023-05-19T10:14:49.202Z,17.27
2023-05-19T10:17:19.060Z,17.52
2023-05-19T10:19:51.872Z,17.43
2023-05-19T10:22:20.452Z,17.25
2023-05-19T10:24:47.458Z,17.36
2023-05-19T10:27:15.693Z,17.31
2023-05-19T10:29:49.502Z,17.59
2023-05-19T10:32:25.620Z,17.59
2023-05-19T10:35:32.003Z,17.45
2023-05-19T10:38:21.577Z,17.41
2023-05-19T10:41:15.185Z,17.42
2023-05-19T10:43:50.013Z,17.38
2023-05-19T10:46:16.996Z,17.33
2023-05-19T10:48:47.268Z,17.40
2023-05-19T10:51:31.688Z,17.20
2023-05-19T10:53:59.244Z,17.39
2023-05-19T10:56:36.575Z,17.56
2023-05-19T10:59:04.074Z,17.33
2023-05-19T11:01:35.497Z,17.48
2023-05-19T11:04:15.993Z,17.46
2023-05-19T11:07:02.173Z,17.18
2023-05-19T11:09:39.922Z,17.36
2023-05-19T11:12:11.378Z,17.40
2023-05-19T11:14:41.463Z,17.32
2023-05-19T11:17:14.794Z,17.38
2023-05-19T11:19:56.766Z,17.25
2023-05-19T11:22:26.234Z,17.37
2023-05-19T11:24:56.824Z,17.38
2023-05-19T11:27:31.909Z,17.31
2023-05-19T11:30:02.370Z,17.37
2023-05-19T11:32:36.090Z,17.26
2023-05-19T11:35:03.671Z,17.06
2023-05-19T11:37:40.762Z,17.40
2023-05-19T11:40:09.063Z,17.31
2023-05-19T11:42:39.258Z,17.55
2023-05-19T11:45:06.804Z,17.54
2023-05-19T11:47:46.474Z,17.19
2023-05-19T11:50:22.430Z,17.40
2023-05-19T11:53:07.728Z,17.63
2023-05-19T11:55:35.224Z,17.56
2023-05-19T11:58:13.549Z,17.54
2023-05-19T12:00:41.801Z,17.50
2023-05-19T12:03:14.307Z,17.63
2023-05-19T12:05:48.225Z,17.49
2023-05-19T12:08:18.875Z,17.69
2023-05-19T12:10:52.698Z,17.64
2023-05-19T12:13:23.768Z,17.61
2023-05-19T12:15:54.133Z,17.73
2023-05-19T12:18:21.803Z,17.65
2023-05-19T12:20:49.117Z,17.70
2023-05-19T12:23:32.644Z,17.63
2023-05-19T12:26:03.502Z,17.78
2023-05-19T12:28:34.256Z,17.61
2023-05-19T12:31:03.181Z,17.58
2023-05-19T12:33:33.666Z,17.80
2023-05-19T12:36:02.335Z,17.71
2023-05-19T12:41:17.684Z,17.63
2023-05-19T12:43:47.636Z,17.52
2023-05-19T12:46:16.997Z,17.60
2023-05-19T12:48:47.883Z,17.65
2023-05-19T12:51:19.367Z,17.76
2023-05-19T12:53:47.688Z,17.71
2023-05-19T12:56:16.125Z,17.62
2023-05-19T12:58:43.813Z,17.74
2023-05-19T13:01:18.763Z,17.64
2023-05-19T13:03:46.387Z,17.80
2023-05-19T13:06:15.622Z,17.80
2023-05-19T13:08:42.519Z,17.74
2023-05-19T13:11:09.467Z,17.75
2023-05-19T13:13:42.204Z,17.63
2023-05-19T13:16:09.232Z,17.81
2023-05-19T13:18:37.870Z,17.81
2023-05-19T13:21:06.024Z,17.71
2023-05-19T13:23:32.888Z,17.68
2023-05-19T13:26:00.211Z,17.65
2023-05-19T13:28:27.182Z,17.79
2023-05-19T13:30:54.866Z,17.85
2023-05-19T13:33:22.032Z,17.68
2023-05-19T13:35:49.602Z,17.77
2023-05-19T13:38:16.543Z,17.76
2023-05-19T13:40:49.385Z,17.86
2023-05-19T13:43:16.826Z,17.84
2023-05-19T13:45:46.156Z,17.82
2023-05-19T13:48:13.550Z,17.98
2023-05-19T13:50:40.487Z,18.01
2023-05-19T13:53:07.450Z,17.95
2023-05-19T13:55:34.482Z,17.91
2023-05-19T13:58:04.346Z,17.85
2023-05-19T14:00:36.337Z,17.76
2023-05-19T14:03:03.996Z,17.78
2023-05-19T14:05:31.677Z,17.74
2023-05-19T14:08:00.767Z,17.67
2023-05-19T14:10:38.048Z,17.79
2023-05-19T14:13:30.403Z,17.64
2023-05-19T14:15:55.414Z,17.81
2023-05-19T14:18:22.368Z,17.83
2023-05-19T14:20:49.765Z,17.75
2023-05-19T14:23:25.147Z,17.73
2023-05-19T14:25:56.236Z,17.89
2023-05-19T14:28:23.321Z,17.78
2023-05-19T14:30:51.395Z,17.82
2023-05-19T14:33:19.746Z,17.75
2023-05-19T14:35:47.765Z,17.68
2023-05-19T14:38:14.780Z,17.78
2023-05-19T14:40:44.356Z,17.80
2023-05-19T14:43:11.931Z,17.85
2023-05-19T14:45:40.501Z,17.77
2023-05-19T14:48:13.924Z,17.79
2023-05-19T14:50:46.157Z,17.82
2023-05-19T14:53:15.416Z,17.75
2023-05-19T14:55:42.957Z,17.71
2023-05-19T14:58:26.866Z,17.73
2023-05-19T15:00:55.209Z,17.68
2023-05-19T15:03:23.442Z,17.86
2023-05-19T15:05:50.452Z,17.78
2023-05-19T15:08:18.118Z,17.63
2023-05-19T15:10:49.440Z,17.68
2023-05-19T15:13:19.341Z,17.66
2023-05-19T15:15:46.449Z,17.78
2023-05-19T15:18:19.477Z,17.79
2023-05-19T15:20:47.311Z,17.88
2023-05-19T15:23:15.311Z,17.77
2023-05-19T15:25:43.483Z,17.77
2023-05-19T15:28:10.874Z,17.70
2023-05-19T15:30:38.484Z,17.66
2023-05-19T15:33:08.684Z,17.73
2023-05-19T15:35:38.828Z,17.79
2023-05-19T15:38:08.637Z,17.82
2023-05-19T15:40:36.365Z,17.78
2023-05-19T15:43:04.414Z,17.83
2023-05-19T15:45:36.544Z,17.85
2023-05-19T15:48:04.749Z,17.81
2023-05-19T15:50:32.205Z,17.95
2023-05-19T15:52:59.725Z,17.91
2023-05-19T15:55:26.655Z,17.90
2023-05-19T15:58:00.817Z,17.92
2023-05-19T16:00:30.729Z,17.90
2023-05-19T16:02:58.103Z,17.84
2023-05-19T16:05:26.843Z,17.85
2023-05-19T16:07:55.055Z,17.84
2023-05-19T16:10:22.184Z,17.80
2023-05-19T16:12:49.139Z,17.66
2023-05-19T16:15:21.765Z,17.64
2023-05-19T16:17:53.042Z,17.77
2023-05-19T16:20:26.713Z,17.85
2023-05-19T16:22:58.475Z,17.84
2023-05-19T16:25:25.338Z,17.81
2023-05-19T16:27:53.265Z,17.78
2023-05-19T16:30:26.718Z,17.77
2023-05-19T16:32:56.279Z,17.91
2023-05-19T16:35:23.639Z,17.86
2023-05-19T16:37:50.933Z,17.80
2023-05-19T16:40:19.401Z,17.71
2023-05-19T16:42:53.114Z,17.75
2023-05-19T16:45:20.546Z,17.73
2023-05-19T16:47:47.601Z,17.79
2023-05-19T16:50:14.679Z,17.79
2023-05-19T16:52:41.657Z,17.58
2023-05-19T16:55:08.951Z,17.54
2023-05-19T16:57:36.230Z,17.76
2023-05-19T17:02:56.858Z,17.56
2023-05-19T17:05:23.911Z,17.58
2023-05-19T17:07:53.385Z,17.61
2023-05-19T17:10:22.921Z,17.57
2023-05-19T17:12:49.813Z,17.52
2023-05-19T17:15:20.862Z,17.79
2023-05-19T17:17:52.495Z,17.74
2023-05-19T17:20:19.505Z,17.65
2023-05-19T17:22:51.414Z,17.53
2023-05-19T17:25:19.437Z,17.63
2023-05-19T17:27:46.433Z,17.56
2023-05-19T17:30:15.829Z,17.51
2023-05-19T17:32:43.953Z,17.41
2023-05-19T17:35:13.809Z,17.41
2023-05-19T17:37:45.953Z,17.43
2023-05-19T17:40:16.781Z,17.66
2023-05-19T17:42:53.866Z,17.78
2023-05-19T17:45:24.088Z,17.92
2023-05-19T17:47:51.099Z,17.71
2023-05-19T17:50:21.388Z,17.65
2023-05-19T17:52:50.484Z,17.67
2023-05-19T17:55:18.303Z,17.61
2023-05-19T17:57:46.830Z,17.67
2023-05-19T18:00:23.279Z,17.54
2023-05-19T18:02:57.370Z,17.43
2023-05-19T18:05:26.002Z,17.40
2023-05-19T18:07:59.036Z,17.45
2023-05-19T18:10:30.299Z,17.46
2023-05-19T18:12:58.772Z,17.64
2023-05-19T18:15:28.762Z,17.68
2023-05-19T18:17:55.929Z,17.55
2023-05-19T18:20:22.832Z,17.52
2023-05-19T18:22:53.059Z,17.52
2023-05-19T18:25:21.541Z,17.62
2023-05-19T18:27:48.960Z,17.58
2023-05-19T18:30:20.743Z,17.71
2023-05-19T18:32:58.746Z,17.65
2023-05-19T18:35:27.088Z,17.44
2023-05-19T18:38:07.913Z,17.45
2023-05-19T18:40:44.744Z,17.46
2023-05-19T18:43:15.002Z,17.68
2023-05-19T18:45:42.387Z,17.69
2023-05-19T18:48:09.454Z,17.65
2023-05-19T18:50:41.061Z,17.66
2023-05-19T18:53:11.273Z,17.57
2023-05-19T18:55:38.754Z,17.63
2023-05-19T18:58:06.437Z,17.52
2023-05-19T19:00:37.631Z,17.49
2023-05-19T19:03:07.832Z,17.73
2023-05-19T19:05:45.050Z,17.76
2023-05-19T19:08:12.191Z,17.56
2023-05-19T19:10:41.036Z,17.43
2023-05-19T19:13:14.018Z,17.22
2023-05-19T19:15:41.862Z,17.01
2023-05-19T19:18:10.447Z,17.04
2023-05-19T19:20:37.486Z,17.02
2023-05-19T19:23:11.021Z,16.96
2023-05-19T19:25:44.377Z,17.03
2023-05-19T19:28:12.118Z,17.00
2023-05-19T19:30:42.167Z,17.06
2023-05-19T19:33:09.339Z,17.07
2023-05-19T19:35:36.229Z,16.92
2023-05-19T19:38:03.254Z,17.01
2023-05-19T19:40:30.164Z,16.94
2023-05-19T19:42:58.915Z,16.83
2023-05-19T19:45:30.920Z,16.92
2023-05-19T19:47:58.773Z,16.75
2023-05-19T19:50:29.976Z,16.72
2023-05-19T19:53:02.587Z,16.65
2023-05-19T19:55:33.438Z,16.69
2023-05-19T19:58:00.452Z,16.67
2023-05-19T20:00:27.373Z,16.58
2023-05-19T20:03:03.445Z,16.52
2023-05-19T20:05:34.797Z,16.56
2023-05-19T20:08:01.880Z,16.52
2023-05-19T20:10:28.914Z,16.54
2023-05-19T20:12:59.833Z,16.60
2023-05-19T20:15:27.014Z,16.54
2023-05-19T20:17:54.564Z,16.53
2023-05-19T20:20:26.392Z,16.47
2023-05-19T20:22:53.822Z,16.44
2023-05-19T20:25:22.878Z,16.38
2023-05-19T20:27:49.840Z,16.45
2023-05-19T20:30:16.997Z,16.50
2023-05-19T20:32:44.272Z,16.43
2023-05-19T20:35:15.283Z,16.34
2023-05-19T20:37:46.828Z,16.41
2023-05-19T20:40:14.077Z,16.56
2023-05-19T20:42:47.975Z,16.41
2023-05-19T20:45:14.923Z,16.33
2023-05-19T20:47:42.034Z,16.30
2023-05-19T20:50:09.323Z,16.31
2023-05-19T20:52:36.353Z,16.31
2023-05-19T20:55:03.609Z,16.25
2023-05-19T20:57:30.826Z,16.22
2023-05-19T20:59:57.694Z,16.23
2023-05-19T21:02:24.809Z,16.23
2023-05-19T21:04:52.873Z,16.29
2023-05-19T21:07:23.367Z,16.33
2023-05-19T21:09:51.827Z,16.42
2023-05-19T21:12:20.566Z,16.37
2023-05-19T21:14:48.996Z,16.30
2023-05-19T21:17:16.303Z,16.19
2023-05-19T21:19:43.325Z,16.21
2023-05-19T21:22:14.176Z,16.15
2023-05-19T21:24:41.351Z,16.21
2023-05-19T21:27:09.004Z,16.21
2023-05-19T21:29:36.256Z,16.16
2023-05-19T21:32:03.315Z,16.13
2023-05-19T21:34:30.297Z,16.08
2023-05-19T21:36:58.312Z,16.03
2023-05-19T21:39:28.308Z,16.10
2023-05-19T21:42:06.866Z,16.02
2023-05-19T21:44:34.249Z,16.03
2023-05-19T21:47:01.591Z,16.04
2023-05-19T21:49:43.024Z,16.04
2023-05-19T21:52:23.827Z,16.09
2023-05-19T21:54:52.256Z,16.19
2023-05-19T21:57:19.424Z,16.23
2023-05-19T21:59:46.621Z,16.15
2023-05-19T22:02:13.954Z,16.07
2023-05-19T22:04:44.999Z,16.03
2023-05-19T22:07:11.938Z,16.01
2023-05-19T22:09:39.676Z,16.05
2023-05-19T22:12:07.430Z,16.12
2023-05-19T22:14:38.634Z,16.05
2023-05-19T22:17:05.847Z,16.01
2023-05-19T22:19:32.854Z,16.05
2023-05-19T22:22:10.216Z,16.13
2023-05-19T22:24:43.400Z,16.05
2023-05-19T22:27:13.527Z,15.93
2023-05-19T22:29:47.096Z,15.95
2023-05-19T22:32:22.362Z,15.95
2023-05-19T22:34:49.381Z,15.99
2023-05-19T22:37:22.714Z,16.02
2023-05-19T22:39:49.756Z,16.04
2023-05-19T22:42:16.809Z,16.06
2023-05-19T22:44:43.805Z,16.14
2023-05-19T22:47:14.001Z,16.09
2023-05-19T22:49:42.567Z,16.06
2023-05-19T22:52:11.067Z,16.10
2023-05-19T22:54:38.516Z,16.16
2023-05-19T22:57:11.625Z,16.18
2023-05-19T22:59:41.689Z,16.17
2023-05-19T23:02:10.012Z,16.08
2023-05-19T23:04:39.014Z,15.98
2023-05-19T23:07:10.267Z,16.03
2023-05-19T23:09:43.281Z,16.09
2023-05-19T23:12:13.125Z,16.28
2023-05-19T23:14:40.185Z,16.15
2023-05-19T23:17:11.149Z,16.09
2023-05-19T23:19:41.789Z,16.21
2023-05-19T23:22:11.917Z,16.23
2023-05-19T23:24:38.920Z,16.18
2023-05-19T23:27:06.945Z,16.11
2023-05-19T23:29:35.409Z,16.19
2023-05-19T23:32:02.480Z,16.22
2023-05-19T23:34:29.611Z,16.29
2023-05-19T23:37:01.304Z,16.27
2023-05-19T23:39:28.165Z,16.13
2023-05-19T23:41:55.124Z,16.10
2023-05-19T23:44:23.973Z,16.18
2023-05-19T23:46:51.124Z,16.15
2023-05-19T23:49:18.092Z,16.15
2023-05-19T23:51:45.157Z,16.04
2023-05-19T23:54:14.909Z,16.07
2023-05-19T23:56:42.090Z,15.95
2023-05-19T23:59:13.525Z,16.15
